createdAt,value
2022-09-16T00:02:34.860Z,16.27
2022-09-16T00:07:40.773Z,16.21
2022-09-16T00:12:43.805Z,16.16
2022-09-16T00:17:46.683Z,16.12
2022-09-16T00:22:49.517Z,16.03
2022-09-16T00:27:52.267Z,16.01
2022-09-16T00:32:55.083Z,15.94
2022-09-16T00:37:57.850Z,15.89
2022-09-16T00:43:01.167Z,15.84
2022-09-16T00:48:09.558Z,15.84
2022-09-16T00:53:29.357Z,15.81
2022-09-16T00:58:34.975Z,15.78
2022-09-16T01:03:49.048Z,15.76
2022-09-16T01:08:52.180Z,15.69
2022-09-16T01:14:15.378Z,15.64
2022-09-16T01:19:45.062Z,15.60
2022-09-16T01:25:24.749Z,15.55
2022-09-16T01:31:24.626Z,15.48
2022-09-16T01:36:52.980Z,15.39
2022-09-16T01:42:16.081Z,15.32
2022-09-16T01:47:45.043Z,15.26
2022-09-16T01:53:23.427Z,15.19
2022-09-16T01:58:31.892Z,15.18
2022-09-16T02:03:38.197Z,15.16
2022-09-16T02:09:20.742Z,15.11
2022-09-16T02:14:29.019Z,15.06
2022-09-16T02:20:00.621Z,15.03
2022-09-16T02:25:05.231Z,15.02
2022-09-16T02:30:17.920Z,14.94
2022-09-16T02:35:22.475Z,14.94
2022-09-16T02:40:34.848Z,14.93
2022-09-16T02:46:15.567Z,14.94
2022-09-16T02:51:58.644Z,14.93
2022-09-16T02:57:01.548Z,14.91
2022-09-16T03:02:04.637Z,14.92
2022-09-16T03:07:11.033Z,14.94
2022-09-16T03:12:44.650Z,14.95
2022-09-16T03:18:12.015Z,14.94
2022-09-16T03:23:40.237Z,14.93
2022-09-16T03:29:28.018Z,14.91
2022-09-16T03:34:43.274Z,14.86
2022-09-16T03:39:57.820Z,14.81
2022-09-16T03:45:00.768Z,14.73
2022-09-16T03:50:04.783Z,14.71
2022-09-16T03:55:08.841Z,14.71
2022-09-16T04:00:12.476Z,14.69
2022-09-16T04:05:15.519Z,14.70
2022-09-16T04:10:19.155Z,14.69
2022-09-16T04:15:22.606Z,14.70
2022-09-16T04:20:25.400Z,14.69
2022-09-16T04:25:28.342Z,14.68
2022-09-16T04:30:31.220Z,14.68
2022-09-16T04:35:34.045Z,14.64
2022-09-16T04:40:39.783Z,14.65
2022-09-16T04:45:42.549Z,14.67
2022-09-16T04:50:45.579Z,14.70
2022-09-16T04:55:48.804Z,14.71
2022-09-16T05:00:51.808Z,14.70
2022-09-16T05:05:54.629Z,14.69
2022-09-16T05:11:04.797Z,14.69
2022-09-16T05:16:12.262Z,14.75
2022-09-16T05:21:19.594Z,14.82
2022-09-16T05:26:25.920Z,14.90
2022-09-16T05:31:32.152Z,14.97
2022-09-16T05:36:39.042Z,15.07
2022-09-16T05:41:41.917Z,15.16
2022-09-16T05:46:44.789Z,15.22
2022-09-16T05:51:49.782Z,15.30
2022-09-16T05:56:52.642Z,15.41
2022-09-16T06:01:55.561Z,15.45
2022-09-16T06:06:58.321Z,15.49
2022-09-16T06:12:02.402Z,15.50
2022-09-16T06:17:05.314Z,15.62
2022-09-16T06:22:08.108Z,15.69
2022-09-16T06:27:10.824Z,15.78
2022-09-16T06:32:13.564Z,15.84
2022-09-16T06:37:16.741Z,15.83
2022-09-16T06:42:19.685Z,15.86
2022-09-16T06:47:22.684Z,15.82
2022-09-16T06:52:25.515Z,15.88
2022-09-16T06:57:28.245Z,15.91
2022-09-16T07:02:31.341Z,15.94
2022-09-16T07:07:36.550Z,15.94
2022-09-16T07:12:40.002Z,15.88
2022-09-16T07:17:42.759Z,15.95
2022-09-16T07:22:45.612Z,16.06
2022-09-16T07:27:48.443Z,16.15
2022-09-16T07:32:51.225Z,16.21
2022-09-16T07:37:54.079Z,16.28
2022-09-16T07:42:57.812Z,16.34
2022-09-16T07:48:00.601Z,16.38
2022-09-16T07:53:04.579Z,16.42
2022-09-16T07:58:08.672Z,16.50
2022-09-16T08:03:11.526Z,16.54
2022-09-16T08:08:14.443Z,16.48
2022-09-16T08:13:17.488Z,16.47
2022-09-16T08:18:20.664Z,16.54
2022-09-16T08:23:23.601Z,16.58
2022-09-16T08:28:39.640Z,16.63
2022-09-16T08:33:51.286Z,16.57
2022-09-16T08:38:57.510Z,16.47
2022-09-16T08:44:37.659Z,16.38
2022-09-16T08:49:46.500Z,16.28
2022-09-16T08:54:59.350Z,16.29
2022-09-16T09:00:15.572Z,16.38
2022-09-16T09:05:40.324Z,16.50
2022-09-16T09:10:57.444Z,16.60
2022-09-16T09:16:21.800Z,16.73
2022-09-16T09:22:18.875Z,16.82
2022-09-16T09:28:00.341Z,16.90
2022-09-16T09:33:46.196Z,16.93
2022-09-16T09:39:32.675Z,16.95
2022-09-16T09:44:48.366Z,16.98
2022-09-16T09:49:56.915Z,17.04
2022-09-16T09:55:25.876Z,17.18
2022-09-16T10:00:28.776Z,17.22
2022-09-16T10:05:31.881Z,17.33
2022-09-16T10:10:40.938Z,17.30
2022-09-16T10:15:44.661Z,17.30
2022-09-16T10:21:00.698Z,17.31
2022-09-16T10:26:08.591Z,17.34
2022-09-16T10:31:12.908Z,17.37
2022-09-16T10:36:26.518Z,17.40
2022-09-16T10:41:45.751Z,17.36
2022-09-16T10:47:14.429Z,17.30
2022-09-16T10:52:29.803Z,17.32
2022-09-16T10:57:35.202Z,17.39
2022-09-16T11:03:16.267Z,17.52
2022-09-16T11:08:58.102Z,17.67
2022-09-16T11:14:36.763Z,17.87
2022-09-16T11:19:55.247Z,18.01
2022-09-16T11:25:35.113Z,18.12
2022-09-16T11:31:06.182Z,18.22
2022-09-16T11:36:38.146Z,18.27
2022-09-16T11:42:02.029Z,18.25
2022-09-16T11:47:40.632Z,18.26
2022-09-16T11:53:34.679Z,18.40
2022-09-16T11:58:58.538Z,18.46
2022-09-16T12:04:13.391Z,18.60
2022-09-16T12:09:33.670Z,18.65
2022-09-16T12:14:43.907Z,18.65
2022-09-16T12:20:33.974Z,18.63
2022-09-16T12:26:10.503Z,18.61
2022-09-16T12:31:24.220Z,18.51
2022-09-16T12:36:36.031Z,18.44
2022-09-16T12:42:23.709Z,18.37
2022-09-16T12:48:07.000Z,18.32
2022-09-16T12:53:35.357Z,18.27
2022-09-16T12:59:38.136Z,18.28
2022-09-16T13:04:55.949Z,18.36
2022-09-16T13:10:56.061Z,18.42
2022-09-16T13:16:07.057Z,18.48
2022-09-16T13:21:28.680Z,18.51
2022-09-16T13:26:44.666Z,18.46
2022-09-16T13:31:49.093Z,18.46
2022-09-16T13:36:52.212Z,18.46
2022-09-16T13:41:55.484Z,18.45
2022-09-16T13:47:10.522Z,18.44
2022-09-16T13:52:31.390Z,18.48
2022-09-16T13:58:06.561Z,18.48
2022-09-16T14:03:35.543Z,18.44
2022-09-16T14:09:06.178Z,18.40
2022-09-16T14:14:36.295Z,18.40
2022-09-16T14:19:42.513Z,18.38
2022-09-16T14:24:50.269Z,18.35
2022-09-16T14:30:07.200Z,18.32
2022-09-16T14:35:24.299Z,18.29
2022-09-16T14:40:28.735Z,18.25
2022-09-16T14:45:33.852Z,18.19
2022-09-16T14:50:44.865Z,18.22
2022-09-16T14:55:49.744Z,18.15
2022-09-16T15:01:04.277Z,18.16
2022-09-16T15:06:16.647Z,18.09
2022-09-16T15:11:46.338Z,18.06
2022-09-16T15:16:54.077Z,18.02
2022-09-16T15:21:58.040Z,17.96
2022-09-16T15:27:01.683Z,17.94
2022-09-16T15:32:23.362Z,17.88
2022-09-16T15:37:34.692Z,17.82
2022-09-16T15:42:38.147Z,17.74
2022-09-16T15:48:01.079Z,17.68
2022-09-16T15:53:18.533Z,17.65
2022-09-16T15:58:39.896Z,17.58
2022-09-16T16:03:45.564Z,17.53
2022-09-16T16:08:51.502Z,17.45
2022-09-16T16:13:56.552Z,17.42
2022-09-16T16:19:04.055Z,17.34
2022-09-16T16:24:06.839Z,17.26
2022-09-16T16:29:09.650Z,17.17
2022-09-16T16:34:12.412Z,17.10
2022-09-16T16:39:15.571Z,17.02
2022-09-16T16:44:19.053Z,16.99
2022-09-16T16:49:23.022Z,16.88
2022-09-16T16:54:27.443Z,16.84
2022-09-16T16:59:31.289Z,16.75
2022-09-16T17:04:34.261Z,16.68
2022-09-16T17:09:38.348Z,16.60
2022-09-16T17:14:42.184Z,16.52
2022-09-16T17:19:45.150Z,16.44
2022-09-16T17:24:48.581Z,16.40
2022-09-16T17:29:51.330Z,16.31
2022-09-16T17:34:54.083Z,16.26
2022-09-16T17:39:56.881Z,16.22
2022-09-16T17:45:00.876Z,16.16
2022-09-16T17:50:05.438Z,16.08
2022-09-16T17:55:08.759Z,16.00
2022-09-16T18:00:12.305Z,15.90
2022-09-16T18:05:15.485Z,15.94
2022-09-16T18:10:18.339Z,15.89
2022-09-16T18:15:21.156Z,15.86
2022-09-16T18:20:25.386Z,15.85
2022-09-16T18:25:29.048Z,15.82
2022-09-16T18:30:31.814Z,15.78
2022-09-16T18:35:37.265Z,15.78
2022-09-16T18:40:40.016Z,15.82
2022-09-16T18:45:42.876Z,15.86
2022-09-16T18:50:45.672Z,15.87
2022-09-16T18:55:48.396Z,15.87
2022-09-16T19:00:51.344Z,15.88
2022-09-16T19:05:57.490Z,15.87
2022-09-16T19:11:04.394Z,15.86
2022-09-16T19:16:07.498Z,15.81
2022-09-16T19:21:16.512Z,15.82
2022-09-16T19:26:20.062Z,15.81
2022-09-16T19:31:22.860Z,15.78
2022-09-16T19:36:29.123Z,15.77
2022-09-16T19:41:35.338Z,15.77
2022-09-16T19:46:42.511Z,15.71
2022-09-16T19:51:46.224Z,15.62
2022-09-16T19:56:50.932Z,15.53
2022-09-16T20:01:54.119Z,15.48
2022-09-16T20:06:56.931Z,15.49
2022-09-16T20:11:59.836Z,15.51
2022-09-16T20:17:03.771Z,15.51
2022-09-16T20:22:06.615Z,15.50
2022-09-16T20:27:09.559Z,15.45
2022-09-16T20:32:12.390Z,15.42
2022-09-16T20:37:15.280Z,15.37
2022-09-16T20:42:18.042Z,15.33
2022-09-16T20:47:21.632Z,15.36
2022-09-16T20:52:24.437Z,15.34
2022-09-16T20:57:29.163Z,15.30
2022-09-16T21:02:32.704Z,15.26
2022-09-16T21:07:35.565Z,15.22
2022-09-16T21:12:38.268Z,15.18
2022-09-16T21:17:40.993Z,15.13
2022-09-16T21:22:44.612Z,15.08
2022-09-16T21:27:48.231Z,14.98
2022-09-16T21:32:51.077Z,14.86
2022-09-16T21:37:54.359Z,14.76
2022-09-16T21:42:57.223Z,14.66
2022-09-16T21:47:59.996Z,14.64
2022-09-16T21:53:03.850Z,14.59
2022-09-16T21:58:08.332Z,14.57
2022-09-16T22:03:11.223Z,14.55
2022-09-16T22:08:14.113Z,14.46
2022-09-16T22:13:16.978Z,14.42
2022-09-16T22:18:20.206Z,14.34
2022-09-16T22:23:23.055Z,14.30
2022-09-16T22:28:25.910Z,14.26
2022-09-16T22:33:28.709Z,14.24
2022-09-16T22:38:31.911Z,14.24
2022-09-16T22:43:40.059Z,14.19
2022-09-16T22:48:44.001Z,14.16
2022-09-16T22:53:48.266Z,14.09
2022-09-16T22:58:56.802Z,14.08
2022-09-16T23:04:01.755Z,14.02
2022-09-16T23:09:07.032Z,13.93
2022-09-16T23:14:15.523Z,13.88
2022-09-16T23:19:18.899Z,13.78
2022-09-16T23:24:22.520Z,13.72
2022-09-16T23:29:25.838Z,13.65
2022-09-16T23:34:28.635Z,13.58
2022-09-16T23:39:31.384Z,13.55
2022-09-16T23:44:34.206Z,13.57
2022-09-16T23:49:37.229Z,13.52
2022-09-16T23:54:40.081Z,13.55
2022-09-16T23:59:42.836Z,13.60
